createdAt,value
2022-11-30T00:01:14.158Z,96178.22
2022-11-30T00:03:41.257Z,96184.47
2022-11-30T00:06:10.384Z,96188.25
2022-11-30T00:08:37.793Z,96176.31
2022-11-30T00:11:14.684Z,96178.78
2022-11-30T00:13:42.035Z,96180.13
2022-11-30T00:16:08.847Z,96187.97
2022-11-30T00:18:36.374Z,96180.91
2022-11-30T00:21:05.901Z,96187.41
2022-11-30T00:23:34.135Z,96175.16
2022-11-30T00:26:06.312Z,96186.53
2022-11-30T00:28:34.214Z,96176.50
2022-11-30T00:31:06.984Z,96177.03
2022-11-30T00:33:35.104Z,96173.22
2022-11-30T00:36:04.400Z,96170.25
2022-11-30T00:38:32.123Z,96168.88
2022-11-30T00:40:59.205Z,96168.31
2022-11-30T00:43:25.771Z,96163.97
2022-11-30T00:45:54.028Z,96169.94
2022-11-30T00:48:20.865Z,96171.28
2022-11-30T00:50:49.278Z,96171.06
2022-11-30T00:53:16.252Z,96171.84
2022-11-30T00:55:44.284Z,96159.09
2022-11-30T00:58:11.995Z,96166.38
2022-11-30T01:00:39.099Z,96165.81
2022-11-30T01:03:06.160Z,96181.50
2022-11-30T01:05:34.574Z,96162.81
2022-11-30T01:08:02.417Z,96167.16
2022-11-30T01:10:29.287Z,96162.03
2022-11-30T01:12:56.126Z,96170.44
2022-11-30T01:15:23.136Z,96163.44
2022-11-30T01:17:49.773Z,96158.59
2022-11-30T01:20:16.436Z,96164.03
2022-11-30T01:22:43.094Z,96170.03
2022-11-30T01:25:09.821Z,96162.69
2022-11-30T01:27:36.439Z,96165.72
2022-11-30T01:30:03.404Z,96163.56
2022-11-30T01:32:29.979Z,96166.22
2022-11-30T01:34:56.595Z,96158.59
2022-11-30T01:37:23.201Z,96170.50
2022-11-30T01:39:49.890Z,96168.03
2022-11-30T01:42:19.590Z,96166.13
2022-11-30T01:44:57.503Z,96165.06
2022-11-30T01:47:37.548Z,96171.06
2022-11-30T01:50:13.562Z,96171.34
2022-11-30T01:52:44.965Z,96160.78
2022-11-30T01:55:27.018Z,96171.66
2022-11-30T01:57:58.994Z,96173.84
2022-11-30T02:00:25.638Z,96167.38
2022-11-30T02:03:19.689Z,96188.00
2022-11-30T02:09:43.200Z,96178.00
2022-11-30T02:12:51.527Z,96177.19
2022-11-30T02:15:23.835Z,96172.31
2022-11-30T02:17:58.147Z,96177.47
2022-11-30T02:20:35.504Z,96176.38
2022-11-30T02:23:41.905Z,96180.41
2022-11-30T02:26:24.638Z,96175.50
2022-11-30T02:29:13.737Z,96169.75
2022-11-30T02:32:14.319Z,96168.09
2022-11-30T02:34:43.469Z,96171.88
2022-11-30T02:37:13.783Z,96167.25
2022-11-30T02:39:40.561Z,96168.06
2022-11-30T02:42:12.660Z,96171.03
2022-11-30T02:44:42.971Z,96158.03
2022-11-30T02:47:34.559Z,96165.09
2022-11-30T02:50:25.638Z,96159.94
2022-11-30T02:52:54.263Z,96165.91
2022-11-30T02:55:21.125Z,96161.31
2022-11-30T02:57:47.821Z,96161.28
2022-11-30T03:00:15.538Z,96163.19
2022-11-30T03:02:42.415Z,96161.81
2022-11-30T03:05:09.587Z,96152.59
2022-11-30T03:07:36.447Z,96163.44
2022-11-30T03:10:04.143Z,96162.63
2022-11-30T03:12:30.775Z,96162.41
2022-11-30T03:14:57.419Z,96159.72
2022-11-30T03:17:24.079Z,96168.13
2022-11-30T03:19:50.723Z,96161.94
2022-11-30T03:22:17.338Z,96161.69
2022-11-30T03:24:43.976Z,96167.13
2022-11-30T03:27:11.100Z,96170.41
2022-11-30T03:29:37.715Z,96167.69
2022-11-30T03:32:04.495Z,96162.25
2022-11-30T03:34:31.073Z,96166.88
2022-11-30T03:36:57.860Z,96164.69
2022-11-30T03:39:24.555Z,96173.38
2022-11-30T03:41:51.677Z,96169.31
2022-11-30T03:44:18.786Z,96167.97
2022-11-30T03:46:45.600Z,96162.03
2022-11-30T03:49:12.296Z,96158.78
2022-11-30T03:51:38.850Z,96165.00
2022-11-30T03:54:05.613Z,96175.06
2022-11-30T03:56:32.272Z,96163.66
2022-11-30T03:58:58.874Z,96165.81
2022-11-30T04:01:25.960Z,96173.16
2022-11-30T04:03:53.123Z,96162.31
2022-11-30T04:06:21.452Z,96170.16
2022-11-30T04:08:48.641Z,96165.00
2022-11-30T04:11:16.635Z,96172.88
2022-11-30T04:13:43.751Z,96173.97
2022-11-30T04:16:10.864Z,96175.59
2022-11-30T04:18:38.572Z,96174.00
2022-11-30T04:21:07.274Z,96175.09
2022-11-30T04:23:36.680Z,96175.38
2022-11-30T04:26:10.565Z,96166.97
2022-11-30T04:28:37.373Z,96166.16
2022-11-30T04:31:04.093Z,96171.31
2022-11-30T04:33:31.324Z,96171.31
2022-11-30T04:36:00.340Z,96175.66
2022-11-30T04:38:27.919Z,96168.88
2022-11-30T04:40:54.536Z,96172.94
2022-11-30T04:43:21.556Z,96176.22
2022-11-30T04:45:48.589Z,96168.06
2022-11-30T04:48:16.489Z,96173.78
2022-11-30T04:50:43.763Z,96179.19
2022-11-30T04:53:10.913Z,96176.47
2022-11-30T04:55:38.275Z,96183.81
2022-11-30T04:58:05.788Z,96187.59
2022-11-30T05:00:32.981Z,96167.78
2022-11-30T05:02:59.673Z,96183.25
2022-11-30T05:05:26.351Z,96183.00
2022-11-30T05:07:57.642Z,96180.53
2022-11-30T05:10:25.979Z,96189.22
2022-11-30T05:12:52.745Z,96176.75
2022-11-30T05:15:19.999Z,96177.56
2022-11-30T05:17:46.537Z,96185.44
2022-11-30T05:20:13.394Z,96187.88
2022-11-30T05:22:40.125Z,96194.13
2022-11-30T05:25:07.737Z,96198.47
2022-11-30T05:27:35.394Z,96183.59
2022-11-30T05:30:02.532Z,96194.44
2022-11-30T05:32:29.120Z,96197.72
2022-11-30T05:34:55.973Z,96189.03
2022-11-30T05:37:22.691Z,96190.94
2022-11-30T05:39:49.254Z,96193.09
2022-11-30T05:42:16.991Z,96186.03
2022-11-30T05:44:45.819Z,96195.28
2022-11-30T05:47:12.716Z,96193.91
2022-11-30T05:49:39.473Z,96193.91
2022-11-30T05:52:06.120Z,96190.94
2022-11-30T05:54:34.435Z,96194.19
2022-11-30T05:57:01.356Z,96197.44
2022-11-30T05:59:27.926Z,96192.56
2022-11-30T06:01:54.703Z,96199.09
2022-11-30T06:04:21.952Z,96202.34
2022-11-30T06:06:49.649Z,96202.34
2022-11-30T06:09:16.674Z,96205.59
2022-11-30T06:11:43.290Z,96208.31
2022-11-30T06:14:09.927Z,96205.59
2022-11-30T06:16:39.724Z,96200.16
2022-11-30T06:19:06.539Z,96202.63
2022-11-30T06:21:33.198Z,96207.50
2022-11-30T06:23:59.808Z,96204.78
2022-11-30T06:26:26.441Z,96206.97
2022-11-30T06:28:53.254Z,96205.34
2022-11-30T06:31:19.968Z,96203.97
2022-11-30T06:33:46.676Z,96209.94
2022-11-30T06:36:13.402Z,96209.94
2022-11-30T06:38:39.945Z,96203.97
2022-11-30T06:41:10.352Z,96217.81
2022-11-30T06:43:39.132Z,96204.50
2022-11-30T06:46:07.270Z,96212.66
2022-11-30T06:48:34.842Z,96211.56
2022-11-30T06:51:04.985Z,96214.03
2022-11-30T06:53:31.569Z,96209.41
2022-11-30T06:55:58.253Z,96214.03
2022-11-30T06:58:25.011Z,96212.66
2022-11-30T07:00:51.741Z,96212.94
2022-11-30T07:03:18.351Z,96209.94
2022-11-30T07:05:46.300Z,96213.47
2022-11-30T07:08:14.979Z,96209.69
2022-11-30T07:10:43.318Z,96213.75
2022-11-30T07:13:12.091Z,96209.41
2022-11-30T07:15:40.280Z,96209.41
2022-11-30T07:18:07.458Z,96209.13
2022-11-30T07:20:34.553Z,96210.75
2022-11-30T07:23:19.907Z,96208.31
2022-11-30T07:26:05.112Z,96208.31
2022-11-30T07:28:32.409Z,96217.81
2022-11-30T07:30:58.966Z,96209.94
2022-11-30T07:33:25.623Z,96216.44
2022-11-30T07:35:55.071Z,96219.72
2022-11-30T07:38:21.815Z,96210.47
2022-11-30T07:40:48.441Z,96221.34
2022-11-30T07:43:15.788Z,96227.03
2022-11-30T07:45:42.409Z,96232.47
2022-11-30T07:48:09.846Z,96237.63
2022-11-30T07:50:36.445Z,96233.28
2022-11-30T07:53:03.157Z,96237.63
2022-11-30T07:55:29.736Z,96246.88
2022-11-30T07:57:56.373Z,96242.25
2022-11-30T08:00:22.942Z,96253.94
2022-11-30T08:02:50.940Z,96258.03
2022-11-30T08:05:17.593Z,96260.19
2022-11-30T08:07:45.807Z,96259.94
2022-11-30T08:10:12.468Z,96250.69
2022-11-30T08:12:39.164Z,96254.50
2022-11-30T08:15:28.978Z,96259.66
2022-11-30T08:17:55.301Z,96259.38
2022-11-30T08:20:22.403Z,96262.09
2022-11-30T08:22:49.696Z,96263.19
2022-11-30T08:25:16.449Z,96265.34
2022-11-30T08:27:43.063Z,96264.28
2022-11-30T08:30:09.932Z,96270.78
2022-11-30T08:32:36.536Z,96272.41
2022-11-30T08:35:03.190Z,96277.31
2022-11-30T08:37:29.753Z,96275.13
2022-11-30T08:39:56.425Z,96282.19
2022-11-30T08:42:23.047Z,96277.59
2022-11-30T08:44:49.689Z,96285.50
2022-11-30T08:47:16.415Z,96285.50
2022-11-30T08:49:43.056Z,96280.34
2022-11-30T08:52:18.133Z,96279.53
2022-11-30T08:54:47.420Z,96285.50
2022-11-30T08:57:16.560Z,96281.97
2022-11-30T08:59:43.858Z,96290.38
2022-11-30T09:02:18.784Z,96281.13
2022-11-30T09:04:49.100Z,96280.59
2022-11-30T09:07:16.148Z,96285.72
2022-11-30T09:09:42.796Z,96287.63
2022-11-30T09:12:09.521Z,96284.63
2022-11-30T09:14:36.448Z,96282.97
2022-11-30T09:17:03.247Z,96287.31
2022-11-30T09:19:29.947Z,96288.69
2022-11-30T09:21:56.597Z,96284.63
2022-11-30T09:24:23.208Z,96289.25
2022-11-30T09:26:49.950Z,96290.88
2022-11-30T09:29:16.643Z,96290.88
2022-11-30T09:31:43.344Z,96290.31
2022-11-30T09:34:11.182Z,96293.56
2022-11-30T09:36:37.802Z,96292.47
2022-11-30T09:39:04.499Z,96287.81
2022-11-30T09:41:45.753Z,96288.94
2022-11-30T09:44:50.593Z,96285.94
2022-11-30T09:47:41.758Z,96289.19
2022-11-30T09:50:11.070Z,96285.41
2022-11-30T09:52:43.277Z,96281.56
2022-11-30T09:55:15.092Z,96278.00
2022-11-30T09:57:48.999Z,96283.69
2022-11-30T10:00:19.275Z,96286.38
2022-11-30T10:02:46.158Z,96286.06
2022-11-30T10:05:26.291Z,96278.97
2022-11-30T10:08:05.097Z,96270.53
2022-11-30T10:11:09.410Z,96277.63
2022-11-30T10:14:13.427Z,96278.97
2022-11-30T10:17:15.161Z,96276.50
2022-11-30T10:20:01.696Z,96276.31
2022-11-30T10:22:49.333Z,96269.22
2022-11-30T10:25:25.541Z,96265.28
2022-11-30T10:27:55.302Z,96277.25
2022-11-30T10:30:26.870Z,96268.28
2022-11-30T10:32:56.159Z,96267.88
2022-11-30T10:35:40.923Z,96265.13
2022-11-30T10:38:35.666Z,96268.66
2022-11-30T10:41:10.292Z,96267.31
2022-11-30T10:43:44.720Z,96264.88
2022-11-30T10:46:38.459Z,96265.75
2022-11-30T10:49:08.266Z,96262.22
2022-11-30T10:51:39.009Z,96256.69
2022-11-30T10:54:15.236Z,96252.81
2022-11-30T10:56:42.283Z,96261.25
2022-11-30T10:59:17.960Z,96254.34
2022-11-30T11:01:44.734Z,96257.41
2022-11-30T11:04:14.277Z,96256.84
2022-11-30T11:06:56.727Z,96250.09
2022-11-30T11:09:30.200Z,96242.97
2022-11-30T11:11:59.515Z,96241.47
2022-11-30T11:14:28.181Z,96250.03
2022-11-30T11:16:58.421Z,96245.66
2022-11-30T11:19:33.450Z,96247.38
2022-11-30T11:22:22.325Z,96250.91
2022-11-30T11:24:50.512Z,96253.88
2022-11-30T11:27:32.078Z,96246.47
2022-11-30T11:30:13.071Z,96249.56
2022-11-30T11:32:39.727Z,96240.34
2022-11-30T11:35:32.412Z,96237.69
2022-11-30T11:37:59.070Z,96234.50
2022-11-30T11:40:25.790Z,96244.81
2022-11-30T11:42:54.631Z,96248.66
2022-11-30T11:45:26.174Z,96256.22
2022-11-30T11:48:00.106Z,96244.41
2022-11-30T11:50:58.181Z,96244.97
2022-11-30T11:53:25.071Z,96249.38
2022-11-30T11:55:56.433Z,96248.91
2022-11-30T11:58:57.712Z,96241.56
2022-11-30T12:01:42.554Z,96235.84
2022-11-30T12:04:36.296Z,96240.50
2022-11-30T12:07:12.583Z,96235.09
2022-11-30T12:09:55.008Z,96236.69
2022-11-30T12:12:21.639Z,96240.47
2022-11-30T12:14:48.859Z,96238.88
2022-11-30T12:17:22.846Z,96237.22
2022-11-30T12:20:26.494Z,96239.97
2022-11-30T12:23:32.163Z,96246.03
2022-11-30T12:26:13.080Z,96239.72
2022-11-30T12:29:08.672Z,96240.00
2022-11-30T12:31:50.691Z,96248.00
2022-11-30T12:34:32.619Z,96249.28
2022-11-30T12:37:08.184Z,96249.53
2022-11-30T12:39:47.340Z,96243.84
2022-11-30T12:42:29.351Z,96247.94
2022-11-30T12:45:12.504Z,96241.63
2022-11-30T12:47:41.994Z,96245.13
2022-11-30T12:50:08.772Z,96247.31
2022-11-30T12:53:06.572Z,96237.91
2022-11-30T12:56:10.345Z,96239.53
2022-11-30T12:59:03.053Z,96239.84
2022-11-30T13:01:29.638Z,96241.22
2022-11-30T13:04:04.025Z,96245.88
2022-11-30T13:06:32.996Z,96243.38
2022-11-30T13:09:18.868Z,96242.88
2022-11-30T13:11:53.911Z,96236.69
2022-11-30T13:14:26.977Z,96231.28
2022-11-30T13:17:05.408Z,96237.03
2022-11-30T13:20:04.356Z,96227.25
2022-11-30T13:22:49.129Z,96233.00
2022-11-30T13:25:38.994Z,96236.91
2022-11-30T13:28:36.908Z,96240.47
2022-11-30T13:31:20.125Z,96237.75
2022-11-30T13:33:53.869Z,96242.09
2022-11-30T13:36:31.175Z,96243.28
2022-11-30T13:39:19.113Z,96238.44
2022-11-30T13:42:10.489Z,96239.00
2022-11-30T13:44:39.905Z,96237.91
2022-11-30T13:47:15.883Z,96237.94
2022-11-30T13:49:42.656Z,96240.13
2022-11-30T13:52:23.973Z,96246.16
2022-11-30T13:54:57.302Z,96247.53
2022-11-30T13:57:29.823Z,96248.91
2022-11-30T13:59:58.270Z,96242.38
2022-11-30T14:02:31.369Z,96253.28
2022-11-30T14:05:40.242Z,96251.41
2022-11-30T14:08:06.974Z,96256.59
2022-11-30T14:10:33.619Z,96256.88
2022-11-30T14:13:09.882Z,96268.31
2022-11-30T14:15:39.300Z,96267.22
2022-11-30T14:18:08.708Z,96261.53
2022-11-30T14:20:45.238Z,96264.78
2022-11-30T14:23:15.399Z,96262.34
2022-11-30T14:25:49.853Z,96274.59
2022-11-30T14:28:20.393Z,96278.94
2022-11-30T14:30:48.621Z,96279.22
2022-11-30T14:33:22.656Z,96283.31
2022-11-30T14:35:54.747Z,96277.59
2022-11-30T14:38:27.086Z,96276.25
2022-11-30T14:40:54.321Z,96276.78
2022-11-30T14:43:21.208Z,96275.16
2022-11-30T14:46:03.026Z,96271.38
2022-11-30T14:48:31.908Z,96268.91
2022-11-30T14:51:01.481Z,96271.38
2022-11-30T14:53:58.104Z,96272.44
2022-11-30T14:56:33.591Z,96270.28
2022-11-30T14:59:37.716Z,96269.19
2022-11-30T15:02:11.947Z,96266.75
2022-11-30T15:04:38.681Z,96266.75
2022-11-30T15:07:13.379Z,96271.91
2022-11-30T15:09:43.653Z,96266.44
2022-11-30T15:12:10.619Z,96271.34
2022-11-30T15:14:37.260Z,96276.50
2022-11-30T15:17:03.931Z,96283.00
2022-11-30T15:19:34.081Z,96273.50
2022-11-30T15:22:01.022Z,96270.25
2022-11-30T15:24:29.574Z,96275.41
2022-11-30T15:27:10.907Z,96271.06
2022-11-30T15:29:42.940Z,96275.13
2022-11-30T15:32:18.119Z,96283.53
2022-11-30T15:34:54.917Z,96277.28
2022-11-30T15:37:41.078Z,96278.38
2022-11-30T15:40:10.883Z,96280.81
2022-11-30T15:42:43.958Z,96283.28
2022-11-30T15:45:36.237Z,96284.06
2022-11-30T15:48:03.837Z,96285.97
2022-11-30T15:50:32.825Z,96294.13
2022-11-30T15:53:20.614Z,96285.97
2022-11-30T15:55:48.598Z,96296.03
2022-11-30T15:58:27.342Z,96300.09
2022-11-30T16:01:05.569Z,96302.78
2022-11-30T16:03:34.320Z,96303.63
2022-11-30T16:06:06.951Z,96303.91
2022-11-30T16:08:33.667Z,96304.97
2022-11-30T16:11:06.167Z,96306.59
2022-11-30T16:13:34.383Z,96298.19
2022-11-30T16:16:01.113Z,96306.59
2022-11-30T16:18:28.669Z,96304.13
2022-11-30T16:21:00.247Z,96302.78
2022-11-30T16:23:27.615Z,96309.84
2022-11-30T16:25:54.883Z,96307.13
2022-11-30T16:28:22.739Z,96309.31
2022-11-30T16:30:50.007Z,96314.19
2022-11-30T16:33:30.919Z,96313.66
2022-11-30T16:36:01.542Z,96325.88
2022-11-30T16:38:28.743Z,96319.06
2022-11-30T16:40:56.384Z,96312.81
2022-11-30T16:43:23.543Z,96324.78
2022-11-30T16:45:51.063Z,96325.59
2022-11-30T16:48:18.297Z,96322.59
2022-11-30T16:50:45.386Z,96323.97
2022-11-30T16:53:17.669Z,96337.00
2022-11-30T16:55:44.301Z,96327.75
2022-11-30T16:58:11.616Z,96333.19
2022-11-30T17:00:40.195Z,96331.56
2022-11-30T17:03:26.120Z,96332.63
2022-11-30T17:05:52.807Z,96338.59
2022-11-30T17:08:19.616Z,96343.22
2022-11-30T17:10:50.705Z,96344.81
2022-11-30T17:13:18.053Z,96339.41
2022-11-30T17:15:45.349Z,96339.66
2022-11-30T17:18:12.133Z,96346.19
2022-11-30T17:20:39.156Z,96338.31
2022-11-30T17:23:06.905Z,96345.88
2022-11-30T17:25:33.995Z,96344.00
2022-11-30T17:28:00.712Z,96344.25
2022-11-30T17:30:27.942Z,96348.59
2022-11-30T17:32:54.785Z,96345.88
2022-11-30T17:35:21.412Z,96351.84
2022-11-30T17:37:48.101Z,96348.88
2022-11-30T17:40:17.762Z,96347.78
2022-11-30T17:42:44.433Z,96351.03
2022-11-30T17:45:11.247Z,96353.47
2022-11-30T17:47:37.984Z,96356.75
2022-11-30T17:50:06.747Z,96349.66
2022-11-30T17:52:33.365Z,96349.41
2022-11-30T17:55:00.074Z,96351.84
2022-11-30T17:57:26.916Z,96358.09
2022-11-30T17:59:53.530Z,96358.63
2022-11-30T18:02:20.194Z,96364.06
2022-11-30T18:04:47.104Z,96360.00
2022-11-30T18:07:14.057Z,96356.75
2022-11-30T18:09:42.770Z,96368.41
2022-11-30T18:12:10.772Z,96375.72
2022-11-30T18:14:37.830Z,96371.94
2022-11-30T18:17:04.536Z,96368.41
2022-11-30T18:19:31.262Z,96377.63
2022-11-30T18:21:57.893Z,96369.22
2022-11-30T18:24:25.756Z,96373.28
2022-11-30T18:26:52.829Z,96373.81
2022-11-30T18:29:19.662Z,96378.72
2022-11-30T18:31:48.491Z,96374.91
2022-11-30T18:34:15.464Z,96379.53
2022-11-30T18:36:42.065Z,96383.00
2022-11-30T18:39:08.730Z,96378.38
2022-11-30T18:41:35.410Z,96372.97
2022-11-30T18:44:01.965Z,96377.56
2022-11-30T18:46:28.608Z,96383.59
2022-11-30T18:48:56.411Z,96387.13
2022-11-30T18:51:27.886Z,96383.81
2022-11-30T18:53:59.896Z,96389.00
2022-11-30T18:56:28.882Z,96381.91
2022-11-30T18:58:58.437Z,96379.47
2022-11-30T19:01:25.965Z,96385.47
2022-11-30T19:03:54.607Z,96384.63
2022-11-30T19:06:21.820Z,96387.13
2022-11-30T19:08:48.833Z,96386.28
2022-11-30T19:11:17.625Z,96381.69
2022-11-30T19:13:44.923Z,96374.91
2022-11-30T19:16:14.058Z,96379.78
2022-11-30T19:18:41.233Z,96385.75
2022-11-30T19:21:19.009Z,96374.09
2022-11-30T19:23:46.498Z,96379.78
2022-11-30T19:26:14.306Z,96383.31
2022-11-30T19:28:42.807Z,96383.59
2022-11-30T19:31:15.069Z,96384.13
2022-11-30T19:33:43.694Z,96377.06
2022-11-30T19:36:16.226Z,96376.75
2022-11-30T19:38:42.880Z,96384.41
2022-11-30T19:41:11.884Z,96384.63
2022-11-30T19:43:39.138Z,96385.75
2022-11-30T19:46:11.055Z,96381.69
2022-11-30T19:48:37.965Z,96377.06
2022-11-30T19:51:17.578Z,96381.91
2022-11-30T19:53:44.977Z,96387.59
2022-11-30T19:56:17.916Z,96385.72
2022-11-30T19:58:45.911Z,96395.72
2022-11-30T20:01:14.090Z,96387.28
2022-11-30T20:03:41.011Z,96400.84
2022-11-30T20:06:07.828Z,96389.72
2022-11-30T20:08:34.448Z,96388.91
2022-11-30T20:11:01.123Z,96394.31
2022-11-30T20:13:30.466Z,96390.53
2022-11-30T20:15:57.190Z,96388.91
2022-11-30T20:18:23.829Z,96385.91
2022-11-30T20:20:50.497Z,96395.38
2022-11-30T20:23:17.118Z,96399.19
2022-11-30T20:25:43.682Z,96394.31
2022-11-30T20:28:12.718Z,96396.94
2022-11-30T20:30:39.636Z,96397.78
2022-11-30T20:33:06.251Z,96395.88
2022-11-30T20:35:35.352Z,96392.31
2022-11-30T20:38:01.922Z,96390.66
2022-11-30T20:40:28.569Z,96402.31
2022-11-30T20:42:55.126Z,96391.75
2022-11-30T20:45:21.759Z,96390.91
2022-11-30T20:47:48.307Z,96391.69
2022-11-30T20:50:14.926Z,96389.78
2022-11-30T20:52:41.537Z,96388.91
2022-11-30T20:55:08.544Z,96378.81
2022-11-30T20:57:35.183Z,96381.78
2022-11-30T21:00:02.377Z,96386.03
2022-11-30T21:02:28.961Z,96385.88
2022-11-30T21:04:55.663Z,96388.09
2022-11-30T21:07:22.308Z,96387.31
2022-11-30T21:09:49.001Z,96389.84
2022-11-30T21:12:15.632Z,96388.00
2022-11-30T21:14:42.279Z,96389.09
2022-11-30T21:17:08.903Z,96398.34
2022-11-30T21:19:35.537Z,96386.69
2022-11-30T21:22:04.163Z,96400.28
2022-11-30T21:24:30.756Z,96392.97
2022-11-30T21:26:57.404Z,96395.97
2022-11-30T21:29:24.039Z,96389.97
2022-11-30T21:31:50.601Z,96385.63
2022-11-30T21:34:17.336Z,96388.91
2022-11-30T21:36:44.107Z,96390.53
2022-11-30T21:39:14.037Z,96394.88
2022-11-30T21:41:41.029Z,96401.69
2022-11-30T21:44:11.710Z,96394.34
2022-11-30T21:46:38.524Z,96388.66
2022-11-30T21:49:05.879Z,96389.75
2022-11-30T21:51:33.184Z,96402.53
2022-11-30T21:54:02.387Z,96390.59
2022-11-30T21:56:35.100Z,96399.25
2022-11-30T21:59:01.925Z,96396.53
2022-11-30T22:01:34.539Z,96386.25
2022-11-30T22:04:03.962Z,96404.97
2022-11-30T22:06:31.829Z,96402.78
2022-11-30T22:09:07.854Z,96403.88
2022-11-30T22:11:39.892Z,96403.06
2022-11-30T22:14:10.754Z,96412.63
2022-11-30T22:16:37.420Z,96405.28
2022-11-30T22:19:05.716Z,96395.25
2022-11-30T22:21:33.111Z,96401.22
2022-11-30T22:24:02.385Z,96397.97
2022-11-30T22:26:37.229Z,96400.09
2022-11-30T22:29:08.205Z,96400.69
2022-11-30T22:31:38.476Z,96398.47
2022-11-30T22:34:05.839Z,96401.44
2022-11-30T22:36:34.457Z,96398.47
2022-11-30T22:39:04.858Z,96399.03
2022-11-30T22:41:32.205Z,96399.03
2022-11-30T22:43:59.547Z,96394.44
2022-11-30T22:46:28.725Z,96405.53
2022-11-30T22:48:55.802Z,96406.91
2022-11-30T22:51:24.697Z,96397.97
2022-11-30T22:53:52.012Z,96397.16
2022-11-30T22:56:22.038Z,96397.97
2022-11-30T22:58:50.746Z,96397.69
2022-11-30T23:01:20.219Z,96391.19
2022-11-30T23:03:48.498Z,96403.94
2022-11-30T23:06:16.719Z,96392.56
2022-11-30T23:08:44.487Z,96385.75
2022-11-30T23:11:13.403Z,96385.50
2022-11-30T23:13:41.779Z,96385.75
2022-11-30T23:16:10.377Z,96387.34
2022-11-30T23:18:39.758Z,96387.66
2022-11-30T23:21:15.298Z,96384.94
2022-11-30T23:23:43.084Z,96386.31
2022-11-30T23:26:20.229Z,96384.41
2022-11-30T23:28:48.762Z,96384.69
2022-11-30T23:31:32.996Z,96385.50
2022-11-30T23:34:06.777Z,96380.88
2022-11-30T23:36:34.773Z,96382.78
2022-11-30T23:39:05.611Z,96386.06
2022-11-30T23:41:33.083Z,96385.78
2022-11-30T23:43:59.939Z,96382.25
2022-11-30T23:46:26.635Z,96382.53
2022-11-30T23:48:53.412Z,96389.06
2022-11-30T23:51:19.988Z,96385.25
2022-11-30T23:53:46.811Z,96376.59
2022-11-30T23:56:16.774Z,96372.78
2022-11-30T23:58:44.061Z,96377.41
